createdAt,value
2018-04-29T00:00:09.496Z,18.9
2018-04-29T00:00:59.608Z,18.9
2018-04-29T00:01:49.607Z,18.9
2018-04-29T00:02:39.972Z,18.9
2018-04-29T00:03:30.317Z,18.9
2018-04-29T00:04:20.388Z,18.9
2018-04-29T00:05:09.956Z,18.9
2018-04-29T00:05:59.933Z,18.9
2018-04-29T00:06:50.018Z,18.9
2018-04-29T00:07:40.391Z,18.9
2018-04-29T00:08:29.950Z,18.9
2018-04-29T00:09:19.951Z,18.9
2018-04-29T00:10:25.483Z,18.9
2018-04-29T00:11:00.406Z,18.9
2018-04-29T00:11:50.643Z,18.9
2018-04-29T00:12:39.624Z,18.9
2018-04-29T00:13:30.876Z,18.9
2018-04-29T00:14:20.678Z,18.9
2018-04-29T00:15:10.093Z,18.9
2018-04-29T00:15:59.904Z,18.9
2018-04-29T00:16:51.085Z,18.9
2018-04-29T00:17:40.570Z,18.9
2018-04-29T00:18:30.907Z,18.9
2018-04-29T00:19:20.426Z,18.9
2018-04-29T00:20:10.769Z,18.9
2018-04-29T00:21:01.468Z,18.9
2018-04-29T00:21:51.430Z,18.9
2018-04-29T00:22:40.400Z,18.9
2018-04-29T00:23:29.638Z,18.9
2018-04-29T00:24:21.457Z,18.9
2018-04-29T00:25:11.165Z,18.9
2018-04-29T00:26:01.861Z,18.9
2018-04-29T00:26:51.828Z,18.9
2018-04-29T00:27:41.361Z,18.9
2018-04-29T00:28:31.165Z,18.9
2018-04-29T00:29:22.015Z,18.9
2018-04-29T00:30:12.123Z,18.9
2018-04-29T00:31:02.161Z,18.9
2018-04-29T00:31:51.663Z,18.9
2018-04-29T00:32:42.305Z,18.9
2018-04-29T00:33:32.066Z,18.9
2018-04-29T00:34:22.394Z,18.9
2018-04-29T00:35:12.220Z,18.9
2018-04-29T00:36:02.875Z,18.9
2018-04-29T00:36:52.322Z,18.9
2018-04-29T00:37:42.115Z,18.9
2018-04-29T00:38:32.009Z,18.8
2018-04-29T00:39:23.075Z,18.8
2018-04-29T00:40:12.057Z,18.9
2018-04-29T00:41:02.621Z,18.8
2018-04-29T00:41:53.009Z,18.9
2018-04-29T00:42:41.917Z,18.9
2018-04-29T00:43:33.129Z,18.8
2018-04-29T00:44:23.262Z,18.8
2018-04-29T00:45:12.679Z,18.9
2018-04-29T00:46:03.048Z,18.8
2018-04-29T00:46:53.665Z,18.8
2018-04-29T00:47:43.448Z,18.8
2018-04-29T00:48:33.529Z,18.8
2018-04-29T00:49:23.857Z,18.8
2018-04-29T00:50:12.818Z,18.8
2018-04-29T00:51:04.025Z,18.8
2018-04-29T00:51:53.731Z,18.8
2018-04-29T00:52:43.515Z,18.8
2018-04-29T00:53:33.820Z,18.8
2018-04-29T00:54:23.954Z,18.8
2018-04-29T00:55:14.283Z,18.8
2018-04-29T00:56:03.807Z,18.8
2018-04-29T00:56:54.128Z,18.9
2018-04-29T00:57:43.922Z,18.8
2018-04-29T00:58:33.718Z,18.8
2018-04-29T00:59:24.360Z,18.8
2018-04-29T01:00:14.395Z,18.8
2018-04-29T01:01:03.342Z,18.8
2018-04-29T01:01:54.605Z,18.8
2018-04-29T01:02:44.124Z,18.8
2018-04-29T01:03:34.933Z,18.8
2018-04-29T01:04:24.763Z,18.8
2018-04-29T01:05:14.790Z,18.8
2018-04-29T01:06:06.333Z,18.8
2018-04-29T01:06:54.445Z,18.8
2018-04-29T01:07:43.915Z,18.8
2018-04-29T01:08:35.415Z,18.8
2018-04-29T01:09:25.085Z,18.8
2018-04-29T01:10:15.505Z,18.8
2018-04-29T01:11:05.531Z,18.8
2018-04-29T01:11:55.038Z,18.8
2018-04-29T01:12:45.092Z,18.8
2018-04-29T01:13:34.899Z,18.8
2018-04-29T01:14:24.952Z,18.8
2018-04-29T01:15:15.045Z,18.8
2018-04-29T01:16:05.362Z,18.8
2018-04-29T01:16:55.479Z,18.8
2018-04-29T01:17:45.774Z,18.8
2018-04-29T01:18:35.286Z,18.8
2018-04-29T01:19:25.980Z,18.8
2018-04-29T01:20:15.939Z,18.8
2018-04-29T01:21:06.007Z,18.8
2018-04-29T01:21:55.784Z,18.8
2018-04-29T01:22:46.391Z,18.8
2018-04-29T01:23:35.971Z,18.8
2018-04-29T01:24:25.152Z,18.8
2018-04-29T01:25:16.349Z,18.8
2018-04-29T01:26:06.371Z,18.8
2018-04-29T01:26:55.632Z,18.8
2018-04-29T01:27:45.983Z,18.8
2018-04-29T01:28:36.614Z,18.8
2018-04-29T01:29:26.414Z,18.8
2018-04-29T01:30:16.717Z,18.8
2018-04-29T01:31:05.678Z,18.8
2018-04-29T01:31:56.562Z,18.8
2018-04-29T01:32:46.895Z,18.8
2018-04-29T01:33:36.713Z,18.8
2018-04-29T01:34:27.021Z,18.8
2018-04-29T01:35:16.524Z,18.8
2018-04-29T01:36:06.926Z,18.8
2018-04-29T01:36:56.918Z,18.8
2018-04-29T01:37:47.599Z,18.8
2018-04-29T01:38:37.458Z,18.8
2018-04-29T01:39:27.187Z,18.8
2018-04-29T01:40:17.278Z,18.8
2018-04-29T01:41:07.633Z,18.8
2018-04-29T01:41:57.123Z,18.8
2018-04-29T01:42:46.563Z,18.8
2018-04-29T01:43:36.591Z,18.8
2018-04-29T01:44:27.596Z,18.8
2018-04-29T01:45:16.766Z,18.8
2018-04-29T01:46:07.965Z,18.8
2018-04-29T01:46:57.739Z,18.8
2018-04-29T01:47:48.105Z,18.8
2018-04-29T01:48:38.144Z,18.8
2018-04-29T01:49:28.545Z,18.8
2018-04-29T01:50:18.519Z,18.8
2018-04-29T01:51:08.658Z,18.8
2018-04-29T01:51:57.830Z,18.8
2018-04-29T01:52:48.213Z,18.8
2018-04-29T01:55:18.704Z,18.8
2018-04-29T02:00:18.530Z,18.8
2018-04-29T02:25:20.954Z,18.6
2018-04-29T02:26:10.745Z,18.6
2018-04-29T02:28:40.416Z,18.6
2018-04-29T02:29:31.353Z,18.6
2018-04-29T02:31:10.616Z,18.6
2018-04-29T02:32:01.026Z,18.6
2018-04-29T02:32:51.949Z,18.6
2018-04-29T02:33:41.143Z,18.6
2018-04-29T02:34:30.686Z,18.6
2018-04-29T02:35:22.051Z,18.6
2018-04-29T02:36:11.884Z,18.6
2018-04-29T02:37:00.822Z,18.6
2018-04-29T02:37:52.251Z,18.6
2018-04-29T02:38:41.889Z,18.6
2018-04-29T02:39:32.163Z,18.6
2018-04-29T02:40:21.912Z,18.6
2018-04-29T02:41:12.241Z,18.6
2018-04-29T02:42:02.342Z,18.6
2018-04-29T02:42:52.072Z,18.6
2018-04-29T02:43:42.550Z,18.6
2018-04-29T02:44:32.816Z,18.6
2018-04-29T02:45:22.028Z,18.6
2018-04-29T02:46:12.439Z,18.6
2018-04-29T02:47:02.712Z,18.6
2018-04-29T02:47:52.769Z,18.6
2018-04-29T02:48:42.264Z,18.6
2018-04-29T02:49:32.632Z,18.6
2018-04-29T02:50:22.392Z,18.6
2018-04-29T02:51:13.307Z,18.6
2018-04-29T02:52:03.354Z,18.6
2018-04-29T02:52:52.899Z,18.6
2018-04-29T02:53:43.249Z,18.6
2018-04-29T02:54:32.438Z,18.6
2018-04-29T02:55:22.873Z,18.6
2018-04-29T02:56:13.477Z,18.6
2018-04-29T02:57:03.281Z,18.6
2018-04-29T02:57:53.656Z,18.6
2018-04-29T02:58:43.619Z,18.6
2018-04-29T02:59:33.114Z,18.6
2018-04-29T03:00:22.895Z,18.6
2018-04-29T03:01:12.720Z,18.6
2018-04-29T03:02:04.232Z,18.6
2018-04-29T03:02:54.263Z,18.6
2018-04-29T03:03:44.320Z,18.6
2018-04-29T03:04:33.495Z,18.6
2018-04-29T03:05:23.857Z,18.6
2018-04-29T03:06:13.394Z,18.6
2018-04-29T03:07:04.602Z,18.6
2018-04-29T03:07:54.062Z,18.6
2018-04-29T03:08:44.109Z,18.6
2018-04-29T03:09:34.195Z,18.6
2018-04-29T03:10:24.028Z,18.6
2018-04-29T03:11:14.629Z,18.6
2018-04-29T03:12:03.875Z,18.6
2018-04-29T03:12:54.201Z,18.6
2018-04-29T03:13:44.194Z,18.6
2018-04-29T03:14:35.196Z,18.6
2018-04-29T03:15:24.711Z,18.6
2018-04-29T03:16:14.972Z,18.6
2018-04-29T03:17:04.484Z,18.5
2018-04-29T03:17:54.571Z,18.5
2018-04-29T03:18:45.473Z,18.5
2018-04-29T03:19:34.103Z,18.5
2018-04-29T03:20:24.741Z,18.5
2018-04-29T03:21:15.011Z,18.5
2018-04-29T03:22:04.828Z,18.5
2018-04-29T03:22:55.491Z,18.5
2018-04-29T03:23:45.764Z,18.5
2018-04-29T03:24:35.301Z,18.5
2018-04-29T03:25:25.642Z,18.5
2018-04-29T03:26:15.729Z,18.5
2018-04-29T03:27:05.490Z,18.5
2018-04-29T03:27:55.571Z,18.5
2018-04-29T03:28:46.172Z,18.5
2018-04-29T03:29:36.017Z,18.5
2018-04-29T03:30:26.405Z,18.5
2018-04-29T03:31:15.598Z,18.5
2018-04-29T03:32:05.909Z,18.5
2018-04-29T03:32:55.954Z,18.5
2018-04-29T03:33:46.277Z,18.5
2018-04-29T03:34:36.647Z,18.5
2018-04-29T03:35:26.189Z,18.5
2018-04-29T03:36:16.294Z,18.4
2018-04-29T03:37:06.441Z,18.4
2018-04-29T03:37:56.253Z,18.4
2018-04-29T03:38:46.189Z,18.4
2018-04-29T03:39:36.267Z,18.4
2018-04-29T03:40:26.306Z,18.5
2018-04-29T03:41:15.276Z,18.5
2018-04-29T03:42:06.767Z,18.4
2018-04-29T03:42:56.748Z,18.4
2018-04-29T03:43:47.401Z,18.4
2018-04-29T03:44:37.405Z,18.4
2018-04-29T03:45:26.085Z,18.4
2018-04-29T03:46:17.066Z,18.4
2018-04-29T03:47:07.308Z,18.4
2018-04-29T03:47:57.179Z,18.4
2018-04-29T03:48:47.164Z,18.4
2018-04-29T03:49:37.537Z,18.4
2018-04-29T03:50:27.580Z,18.4
2018-04-29T03:51:17.693Z,18.4
2018-04-29T03:52:08.007Z,18.4
2018-04-29T03:52:57.001Z,18.4
2018-04-29T03:53:47.904Z,18.4
2018-04-29T03:54:37.660Z,18.4
2018-04-29T03:55:28.025Z,18.4
2018-04-29T03:56:17.497Z,18.4
2018-04-29T03:57:07.917Z,18.4
2018-04-29T03:57:58.160Z,18.4
2018-04-29T03:58:48.316Z,18.4
2018-04-29T03:59:37.758Z,18.4
2018-04-29T04:00:28.078Z,18.4
2018-04-29T04:01:18.156Z,18.4
2018-04-29T04:02:08.251Z,18.4
2018-04-29T04:02:58.392Z,18.4
2018-04-29T04:03:48.375Z,18.4
2018-04-29T04:04:38.751Z,18.4
2018-04-29T04:05:28.246Z,18.4
2018-04-29T04:06:19.076Z,18.4
2018-04-29T04:07:09.178Z,18.4
2018-04-29T04:07:58.376Z,18.4
2018-04-29T04:08:49.020Z,18.4
2018-04-29T04:09:39.287Z,18.4
2018-04-29T04:10:29.389Z,18.4
2018-04-29T04:11:19.490Z,18.4
2018-04-29T04:12:09.253Z,18.4
2018-04-29T04:12:59.383Z,18.4
2018-04-29T04:13:49.690Z,18.4
2018-04-29T04:14:39.685Z,18.4
2018-04-29T04:15:29.534Z,18.4
2018-04-29T04:16:18.474Z,18.4
2018-04-29T04:17:09.361Z,18.4
2018-04-29T04:17:59.147Z,18.4
2018-04-29T04:18:49.236Z,18.4
2018-04-29T04:19:38.752Z,18.4
2018-04-29T04:20:29.635Z,18.4
2018-04-29T04:21:19.444Z,18.4
2018-04-29T04:22:08.934Z,18.4
2018-04-29T04:23:00.149Z,18.4
2018-04-29T04:23:51.435Z,18.4
2018-04-29T04:24:39.432Z,18.4
2018-04-29T04:25:30.571Z,18.4
2018-04-29T04:26:20.436Z,18.4
2018-04-29T04:27:09.596Z,18.4
2018-04-29T04:28:00.502Z,18.4
2018-04-29T04:28:50.562Z,18.4
2018-04-29T04:29:40.651Z,18.4
2018-04-29T04:30:29.602Z,18.4
2018-04-29T04:31:20.548Z,18.4
2018-04-29T04:32:10.818Z,18.4
2018-04-29T04:33:00.877Z,18.4
2018-04-29T04:33:50.740Z,18.4
2018-04-29T04:34:41.293Z,18.4
2018-04-29T04:35:30.320Z,18.4
2018-04-29T04:36:21.144Z,18.4
2018-04-29T04:37:10.733Z,18.4
2018-04-29T04:38:00.724Z,18.4
2018-04-29T04:38:51.368Z,18.4
2018-04-29T04:39:40.885Z,18.4
2018-04-29T04:40:30.654Z,18.4
2018-04-29T04:41:21.247Z,18.4
2018-04-29T04:42:11.555Z,18.4
2018-04-29T04:43:01.395Z,18.3
2018-04-29T04:43:51.158Z,18.3
2018-04-29T04:44:41.604Z,18.4
2018-04-29T04:45:31.907Z,18.4
2018-04-29T04:46:22.046Z,18.3
2018-04-29T04:47:11.993Z,18.4
2018-04-29T04:48:00.958Z,18.3
2018-04-29T04:49:27.647Z,18.4
2018-04-29T04:49:43.718Z,18.4
2018-04-29T04:50:32.000Z,18.4
2018-04-29T04:51:21.485Z,18.3
2018-04-29T04:52:12.380Z,18.4
2018-04-29T04:53:01.937Z,18.4
2018-04-29T04:53:52.229Z,18.4
2018-04-29T04:54:42.869Z,18.3
2018-04-29T04:55:32.671Z,18.4
2018-04-29T04:56:22.442Z,18.3
2018-04-29T04:57:12.277Z,18.3
2018-04-29T04:58:03.144Z,18.3
2018-04-29T04:58:52.973Z,18.4
2018-04-29T04:59:43.014Z,18.3
2018-04-29T05:00:32.780Z,18.4
2018-04-29T05:01:22.588Z,18.3
2018-04-29T05:02:12.876Z,18.4
2018-04-29T05:03:03.234Z,18.3
2018-04-29T05:03:53.336Z,18.4
2018-04-29T05:04:43.714Z,18.4
2018-04-29T05:05:33.127Z,18.3
2018-04-29T05:06:23.515Z,18.4
2018-04-29T05:07:13.465Z,18.4
2018-04-29T05:08:03.087Z,18.4
2018-04-29T05:08:53.127Z,18.4
2018-04-29T05:09:43.237Z,18.4
2018-04-29T05:10:33.574Z,18.4
2018-04-29T05:11:23.123Z,18.4
2018-04-29T05:12:13.098Z,18.4
2018-04-29T05:13:02.902Z,18.4
2018-04-29T05:13:55.059Z,18.4
2018-04-29T05:14:43.625Z,18.4
2018-04-29T05:15:34.530Z,18.4
2018-04-29T05:16:24.551Z,18.4
2018-04-29T05:17:13.773Z,18.4
2018-04-29T05:18:03.840Z,18.4
2018-04-29T05:18:53.418Z,18.4
2018-04-29T05:19:44.246Z,18.4
2018-04-29T05:20:34.708Z,18.4
2018-04-29T05:21:24.371Z,18.4
2018-04-29T05:22:14.656Z,18.4
2018-04-29T05:23:04.233Z,18.4
2018-04-29T05:23:54.804Z,18.4
2018-04-29T05:24:44.614Z,18.4
2018-04-29T05:25:34.975Z,18.4
2018-04-29T05:26:24.800Z,18.4
2018-04-29T05:27:15.076Z,18.4
2018-04-29T05:28:04.885Z,18.4
2018-04-29T05:28:54.935Z,18.4
2018-04-29T05:29:44.407Z,18.4
2018-04-29T05:30:35.320Z,18.4
2018-04-29T05:31:25.437Z,18.4
2018-04-29T05:32:15.093Z,18.4
2018-04-29T05:33:05.795Z,18.4
2018-04-29T05:33:54.574Z,18.4
2018-04-29T05:34:45.268Z,18.4
2018-04-29T05:35:36.231Z,18.4
2018-04-29T05:36:25.594Z,18.4
2018-04-29T05:37:15.395Z,18.4
2018-04-29T05:38:05.178Z,18.4
2018-04-29T05:38:55.189Z,18.4
2018-04-29T05:39:44.465Z,18.4
2018-04-29T05:40:35.657Z,18.4
2018-04-29T05:41:25.957Z,18.4
2018-04-29T05:42:15.976Z,18.4
2018-04-29T05:43:06.054Z,18.4
2018-04-29T05:43:56.162Z,18.4
2018-04-29T05:44:46.179Z,18.4
2018-04-29T05:45:36.206Z,18.4
2018-04-29T05:46:26.565Z,18.4
2018-04-29T05:47:16.635Z,18.4
2018-04-29T05:48:06.447Z,18.4
2018-04-29T05:48:56.500Z,18.4
2018-04-29T05:49:46.373Z,18.4
2018-04-29T05:50:37.203Z,18.4
2018-04-29T05:51:27.238Z,18.4
2018-04-29T05:52:16.483Z,18.4
2018-04-29T05:53:06.847Z,18.4
2018-04-29T05:53:56.629Z,18.4
2018-04-29T05:54:47.282Z,18.4
2018-04-29T05:55:36.744Z,18.3
2018-04-29T05:56:27.105Z,18.3
2018-04-29T05:57:16.892Z,18.4
2018-04-29T05:58:07.499Z,18.4
2018-04-29T05:58:57.319Z,18.4
2018-04-29T05:59:47.627Z,18.4
2018-04-29T06:00:37.423Z,18.4
2018-04-29T06:01:27.259Z,18.4
2018-04-29T06:02:17.797Z,18.4
2018-04-29T06:03:07.674Z,18.4
2018-04-29T06:03:57.408Z,18.4
2018-04-29T06:04:48.060Z,18.4
2018-04-29T06:05:37.284Z,18.4
2018-04-29T06:06:28.926Z,18.4
2018-04-29T06:07:17.681Z,18.4
2018-04-29T06:08:08.492Z,18.4
2018-04-29T06:08:57.757Z,18.4
2018-04-29T06:09:48.701Z,18.4
2018-04-29T06:10:38.182Z,18.4
2018-04-29T06:11:27.968Z,18.4
2018-04-29T06:12:18.650Z,18.4
2018-04-29T06:13:08.951Z,18.4
2018-04-29T06:13:58.958Z,18.4
2018-04-29T06:14:48.772Z,18.4
2018-04-29T06:15:39.130Z,18.4
2018-04-29T06:16:28.375Z,18.4
2018-04-29T06:17:19.245Z,18.4
2018-04-29T06:18:08.458Z,18.4
2018-04-29T06:18:58.636Z,18.4
2018-04-29T06:19:48.931Z,18.4
2018-04-29T06:20:40.427Z,18.4
2018-04-29T06:21:28.740Z,18.4
2018-04-29T06:22:19.096Z,18.4
2018-04-29T06:23:08.886Z,18.4
2018-04-29T06:23:59.497Z,18.4
2018-04-29T06:24:48.758Z,18.4
2018-04-29T06:25:39.666Z,18.4
2018-04-29T06:26:28.877Z,18.4
2018-04-29T06:27:19.728Z,18.4
2018-04-29T06:28:09.298Z,18.4
2018-04-29T06:28:58.776Z,18.4
2018-04-29T06:29:49.685Z,18.4
2018-04-29T06:30:39.859Z,18.4
2018-04-29T06:31:29.545Z,18.4
2018-04-29T06:32:20.180Z,18.4
2018-04-29T06:33:09.090Z,18.4
2018-04-29T06:34:00.264Z,18.4
2018-04-29T06:34:50.723Z,18.4
2018-04-29T06:35:40.160Z,18.4
2018-04-29T06:36:30.002Z,18.4
2018-04-29T06:37:20.257Z,18.4
2018-04-29T06:38:09.741Z,18.4
2018-04-29T06:39:01.402Z,18.4
2018-04-29T06:39:51.027Z,18.4
2018-04-29T06:40:40.870Z,18.4
2018-04-29T06:41:30.962Z,18.4
2018-04-29T06:42:21.022Z,18.4
2018-04-29T06:43:10.744Z,18.4
2018-04-29T06:44:00.763Z,18.4
2018-04-29T06:44:50.914Z,18.4
2018-04-29T06:45:40.881Z,18.4
2018-04-29T06:46:30.687Z,18.4
2018-04-29T06:47:20.802Z,18.4
2018-04-29T06:48:09.768Z,18.4
2018-04-29T06:49:01.717Z,18.4
2018-04-29T06:49:51.513Z,18.4
2018-04-29T06:50:41.671Z,18.4
2018-04-29T06:51:31.472Z,18.4
2018-04-29T06:52:21.195Z,18.5
2018-04-29T06:53:11.773Z,18.4
2018-04-29T06:54:01.564Z,18.5
2018-04-29T06:54:50.859Z,18.4
2018-04-29T06:55:41.961Z,18.4
2018-04-29T06:56:31.176Z,18.4
2018-04-29T06:57:21.850Z,18.4
2018-04-29T06:58:12.451Z,18.4
2018-04-29T06:59:01.725Z,18.5
2018-04-29T06:59:52.057Z,18.4
2018-04-29T07:00:42.547Z,18.4
2018-04-29T07:01:32.444Z,18.4
2018-04-29T07:02:22.523Z,18.4
2018-04-29T07:03:11.773Z,18.5
2018-04-29T07:04:01.864Z,18.4
2018-04-29T07:04:52.154Z,18.4
2018-04-29T07:05:42.507Z,18.5
2018-04-29T07:06:31.893Z,18.4
2018-04-29T07:07:22.223Z,18.4
2018-04-29T07:08:13.131Z,18.4
2018-04-29T07:09:01.668Z,18.4
2018-04-29T07:09:52.265Z,18.5
2018-04-29T07:10:43.182Z,18.5
2018-04-29T07:11:32.936Z,18.5
2018-04-29T07:12:23.263Z,18.5
2018-04-29T07:13:13.633Z,18.5
2018-04-29T07:14:03.387Z,18.5
2018-04-29T07:14:53.317Z,18.5
2018-04-29T07:15:43.847Z,18.5
2018-04-29T07:16:33.066Z,18.5
2018-04-29T07:17:23.782Z,18.5
2018-04-29T07:18:13.238Z,18.5
2018-04-29T07:19:02.798Z,18.5
2018-04-29T07:19:53.802Z,18.5
2018-04-29T07:20:44.240Z,18.5
2018-04-29T07:21:33.507Z,18.5
2018-04-29T07:22:23.825Z,18.5
2018-04-29T07:23:14.168Z,18.5
2018-04-29T07:24:03.778Z,18.5
2018-04-29T07:24:54.338Z,18.5
2018-04-29T07:25:43.790Z,18.5
2018-04-29T07:26:33.865Z,18.5
2018-04-29T07:27:23.043Z,18.5
2018-04-29T07:28:14.249Z,18.5
2018-04-29T07:29:04.400Z,18.5
2018-04-29T07:29:53.887Z,18.5
2018-04-29T07:30:44.233Z,18.5
2018-04-29T07:31:35.091Z,18.5
2018-04-29T07:32:25.220Z,18.5
2018-04-29T07:33:14.417Z,18.6
2018-04-29T07:34:04.297Z,18.5
2018-04-29T07:34:55.119Z,18.5
2018-04-29T07:35:45.176Z,18.5
2018-04-29T07:36:34.785Z,18.5
2018-04-29T07:37:25.254Z,18.5
2018-04-29T07:38:15.362Z,18.5
2018-04-29T07:39:05.406Z,18.5
2018-04-29T07:39:54.908Z,18.5
2018-04-29T07:40:45.834Z,18.5
2018-04-29T07:41:35.629Z,18.5
2018-04-29T07:42:24.004Z,18.5
2018-04-29T07:43:15.452Z,18.5
2018-04-29T07:44:05.529Z,18.5
2018-04-29T07:44:55.846Z,18.5
2018-04-29T07:45:45.436Z,18.5
2018-04-29T07:46:36.938Z,18.5
2018-04-29T07:47:24.677Z,18.5
2018-04-29T07:48:16.205Z,18.5
2018-04-29T07:49:05.965Z,18.5
2018-04-29T07:49:56.627Z,18.5
2018-04-29T07:50:46.696Z,18.5
2018-04-29T07:51:36.382Z,18.5
2018-04-29T07:52:28.144Z,18.5
2018-04-29T07:53:16.274Z,18.5
2018-04-29T07:54:06.715Z,18.5
2018-04-29T07:54:56.791Z,18.5
2018-04-29T07:55:46.478Z,18.5
2018-04-29T07:56:36.646Z,18.5
2018-04-29T07:57:27.153Z,18.6
2018-04-29T07:58:17.166Z,18.6
2018-04-29T07:59:06.164Z,18.6
2018-04-29T07:59:57.083Z,18.5
2018-04-29T08:00:47.381Z,18.5
2018-04-29T08:01:37.571Z,18.5
2018-04-29T08:02:26.989Z,18.5
2018-04-29T08:03:16.520Z,18.5
2018-04-29T08:04:06.312Z,18.5
2018-04-29T08:04:56.623Z,18.5
2018-04-29T08:05:47.255Z,18.5
2018-04-29T08:06:36.431Z,18.6
2018-04-29T08:07:27.116Z,18.6
2018-04-29T08:08:17.734Z,18.6
2018-04-29T08:09:08.063Z,18.5
2018-04-29T08:09:58.258Z,18.6
2018-04-29T08:10:47.753Z,18.5
2018-04-29T08:11:37.671Z,18.6
2018-04-29T08:12:27.774Z,18.6
2018-04-29T08:13:17.863Z,18.6
2018-04-29T08:14:08.260Z,18.6
2018-04-29T08:14:58.026Z,18.5
2018-04-29T08:15:48.407Z,18.6
2018-04-29T08:16:38.125Z,18.6
2018-04-29T08:17:26.395Z,18.6
2018-04-29T08:18:17.911Z,18.5
2018-04-29T08:19:08.852Z,18.5
2018-04-29T08:19:58.669Z,18.6
2018-04-29T08:20:48.230Z,18.6
2018-04-29T08:21:38.227Z,18.6
2018-04-29T08:22:28.783Z,18.6
2018-04-29T08:23:18.649Z,18.6
2018-04-29T08:24:08.759Z,18.6
2018-04-29T08:24:57.989Z,18.6
2018-04-29T08:25:48.255Z,18.6
2018-04-29T08:26:39.191Z,18.6
2018-04-29T08:27:28.938Z,18.6
2018-04-29T08:28:18.998Z,18.6
2018-04-29T08:29:09.331Z,18.6
2018-04-29T08:29:59.971Z,18.6
2018-04-29T08:30:48.350Z,18.6
2018-04-29T08:31:39.836Z,18.6
2018-04-29T08:32:29.643Z,18.6
2018-04-29T08:33:19.415Z,18.6
2018-04-29T08:34:09.179Z,18.6
2018-04-29T08:35:00.085Z,18.6
2018-04-29T08:35:49.314Z,18.6
2018-04-29T08:36:38.943Z,18.6
2018-04-29T08:37:30.348Z,18.6
2018-04-29T08:38:20.390Z,18.6
2018-04-29T08:39:10.159Z,18.6
2018-04-29T08:39:59.088Z,18.6
2018-04-29T08:40:50.277Z,18.6
2018-04-29T08:41:40.353Z,18.6
2018-04-29T08:42:29.617Z,18.6
2018-04-29T08:43:20.758Z,18.6
2018-04-29T08:44:10.532Z,18.6
2018-04-29T08:45:00.324Z,18.6
2018-04-29T08:45:50.686Z,18.6
2018-04-29T08:46:40.562Z,18.6
2018-04-29T08:47:30.560Z,18.6
2018-04-29T08:48:21.118Z,18.6
2018-04-29T08:49:10.706Z,18.6
2018-04-29T08:50:01.259Z,18.6
2018-04-29T08:50:51.322Z,18.6
2018-04-29T08:51:41.407Z,18.6
2018-04-29T08:52:31.469Z,18.6
2018-04-29T08:53:21.261Z,18.6
2018-04-29T08:54:11.308Z,18.6
2018-04-29T08:55:03.555Z,18.6
2018-04-29T08:55:51.434Z,18.6
2018-04-29T08:56:41.223Z,18.6
2018-04-29T08:57:31.619Z,18.6
2018-04-29T08:58:21.458Z,18.6
2018-04-29T08:59:11.676Z,18.6
2018-04-29T09:00:02.049Z,18.6
2018-04-29T09:01:42.531Z,18.8
2018-04-29T09:02:31.668Z,18.8
2018-04-29T09:03:21.512Z,18.9
2018-04-29T09:04:12.415Z,18.9
2018-04-29T09:05:01.663Z,18.9
2018-04-29T09:05:51.728Z,18.9
2018-04-29T09:06:42.335Z,18.9
2018-04-29T09:07:32.421Z,18.9
2018-04-29T09:08:22.446Z,18.9
2018-04-29T09:09:12.246Z,18.9
2018-04-29T09:10:02.310Z,18.9
2018-04-29T09:10:52.648Z,18.9
2018-04-29T09:11:42.737Z,18.9
2018-04-29T09:12:33.061Z,18.9
2018-04-29T09:13:22.839Z,18.9
2018-04-29T09:14:12.386Z,18.9
2018-04-29T09:15:03.013Z,18.9
2018-04-29T09:15:52.238Z,18.9
2018-04-29T09:16:43.215Z,18.9
2018-04-29T09:17:33.676Z,18.9
2018-04-29T09:18:23.554Z,18.9
2018-04-29T09:19:12.551Z,18.9
2018-04-29T09:20:02.871Z,18.9
2018-04-29T09:20:53.226Z,18.9
2018-04-29T09:21:43.518Z,18.9
2018-04-29T09:22:33.607Z,18.9
2018-04-29T09:23:23.207Z,18.9
2018-04-29T09:24:13.524Z,18.9
2018-04-29T09:25:03.494Z,18.9
2018-04-29T09:25:53.657Z,18.9
2018-04-29T09:26:43.913Z,18.9
2018-04-29T09:27:34.285Z,18.9
2018-04-29T09:28:24.173Z,18.9
2018-04-29T09:29:13.269Z,18.9
2018-04-29T09:30:04.462Z,18.9
2018-04-29T09:30:53.661Z,19
2018-04-29T09:31:44.564Z,19
2018-04-29T09:32:34.608Z,19
2018-04-29T09:33:23.864Z,19
2018-04-29T09:34:14.229Z,19
2018-04-29T09:35:04.605Z,19
2018-04-29T09:35:53.350Z,19
2018-04-29T09:36:44.441Z,19
2018-04-29T09:37:35.067Z,19
2018-04-29T09:38:24.856Z,18.9
2018-04-29T09:39:14.609Z,18.9
2018-04-29T09:40:04.432Z,19
2018-04-29T09:40:54.849Z,18.9
2018-04-29T09:41:44.912Z,19
2018-04-29T09:42:34.901Z,18.9
2018-04-29T09:43:26.824Z,18.9
2018-04-29T09:44:15.035Z,18.9
2018-04-29T09:45:04.584Z,18.9
2018-04-29T09:45:54.321Z,18.9
2018-04-29T09:46:45.800Z,19
2018-04-29T09:47:35.580Z,19
2018-04-29T09:48:25.617Z,19
2018-04-29T09:49:15.153Z,19
2018-04-29T09:50:05.769Z,19
2018-04-29T09:50:55.353Z,19.1
2018-04-29T09:51:45.637Z,19.1
2018-04-29T09:52:35.986Z,19
2018-04-29T09:53:25.763Z,19.1
2018-04-29T09:54:16.069Z,19.1
2018-04-29T09:55:06.158Z,19.1
2018-04-29T09:55:56.248Z,19.1
2018-04-29T09:56:45.738Z,19.1
2018-04-29T09:57:34.967Z,19.1
2018-04-29T09:58:25.068Z,19.1
2018-04-29T09:59:16.491Z,19.1
2018-04-29T10:00:06.576Z,19.1
2018-04-29T10:00:56.143Z,19.1
2018-04-29T10:01:45.995Z,19.1
2018-04-29T10:02:36.254Z,19.1
2018-04-29T10:03:26.022Z,19
2018-04-29T10:04:16.644Z,19.1
2018-04-29T10:05:05.864Z,19
2018-04-29T10:05:56.495Z,19.1
2018-04-29T10:06:46.613Z,19.1
2018-04-29T10:07:35.789Z,19.1
2018-04-29T10:08:26.931Z,19.1
2018-04-29T10:09:17.049Z,19.1
2018-04-29T10:10:06.816Z,19
2018-04-29T10:10:56.871Z,19.1
2018-04-29T10:11:47.227Z,19.1
2018-04-29T10:12:37.297Z,19.1
2018-04-29T10:13:27.363Z,19.1
2018-04-29T10:14:17.448Z,19.1
2018-04-29T10:15:07.241Z,19.1
2018-04-29T10:15:58.151Z,19.1
2018-04-29T10:16:46.818Z,19.1
2018-04-29T10:17:36.848Z,19.1
2018-04-29T10:18:27.533Z,19.1
2018-04-29T10:19:18.413Z,19.1
2018-04-29T10:20:06.758Z,19.1
2018-04-29T10:20:56.848Z,19.1
2018-04-29T10:21:48.578Z,19.1
2018-04-29T10:22:36.950Z,19.1
2018-04-29T10:23:27.921Z,19.1
2018-04-29T10:24:17.350Z,19.1
2018-04-29T10:25:08.620Z,19.1
2018-04-29T10:25:58.175Z,19.1
2018-04-29T10:26:48.513Z,19.1
2018-04-29T10:27:38.528Z,19.1
2018-04-29T10:28:28.247Z,19.1
2018-04-29T10:29:18.882Z,19.1
2018-04-29T10:30:09.067Z,19.1
2018-04-29T10:30:57.980Z,19.1
2018-04-29T10:31:48.253Z,19.1
2018-04-29T10:32:39.266Z,19.1
2018-04-29T10:33:29.257Z,19.1
2018-04-29T10:34:18.486Z,19.1
2018-04-29T10:35:09.039Z,19.1
2018-04-29T10:35:58.839Z,19.1
2018-04-29T10:36:48.921Z,19.1
2018-04-29T10:37:39.860Z,19.1
2018-04-29T10:38:28.767Z,19.1
2018-04-29T10:39:19.151Z,19.1
2018-04-29T10:40:09.449Z,19.1
2018-04-29T10:40:59.471Z,19.1
2018-04-29T10:41:49.303Z,19.1
2018-04-29T10:42:39.936Z,19.1
2018-04-29T10:43:30.322Z,19.1
2018-04-29T10:44:20.463Z,19.1
2018-04-29T10:45:09.817Z,19.1
2018-04-29T10:46:00.053Z,19.1
2018-04-29T10:46:50.514Z,19.1
2018-04-29T10:47:40.059Z,19.1
2018-04-29T10:48:29.851Z,19.1
2018-04-29T10:49:20.489Z,19.1
2018-04-29T10:50:10.035Z,19.1
2018-04-29T10:51:00.332Z,19.1
2018-04-29T10:51:49.815Z,19.1
2018-04-29T10:52:41.013Z,19.1
2018-04-29T10:53:29.426Z,19.1
2018-04-29T10:54:20.846Z,19.1
2018-04-29T10:55:10.665Z,19.1
2018-04-29T10:56:00.436Z,19.1
2018-04-29T10:56:51.359Z,19.1
2018-04-29T10:57:40.571Z,19.1
2018-04-29T10:58:30.634Z,19.1
2018-04-29T10:59:21.015Z,19.1
2018-04-29T11:00:11.662Z,19.1
2018-04-29T11:01:00.320Z,19.1
2018-04-29T11:01:50.939Z,19.1
2018-04-29T11:02:41.001Z,19.1
2018-04-29T11:03:30.912Z,19.1
2018-04-29T11:04:22.727Z,19.1
2018-04-29T11:05:10.887Z,19.1
2018-04-29T11:06:00.980Z,19.1
2018-04-29T11:06:51.637Z,19.1
2018-04-29T11:07:41.125Z,19.1
2018-04-29T11:08:31.726Z,19.1
2018-04-29T11:09:22.163Z,19.1
2018-04-29T11:10:11.589Z,19.1
2018-04-29T11:11:01.645Z,19.1
2018-04-29T11:11:53.915Z,19.1
2018-04-29T11:12:41.228Z,19.1
2018-04-29T11:13:31.312Z,19.1
2018-04-29T11:14:22.471Z,19.1
2018-04-29T11:15:12.853Z,19.1
2018-04-29T11:16:01.559Z,19.1
2018-04-29T11:16:52.666Z,19.1
2018-04-29T11:17:41.350Z,19.1
2018-04-29T11:18:32.088Z,19.2
2018-04-29T11:19:21.478Z,19.2
2018-04-29T11:20:11.309Z,19.2
2018-04-29T11:21:02.173Z,19.2
2018-04-29T11:21:52.522Z,19.1
2018-04-29T11:22:41.088Z,19.1
2018-04-29T11:23:32.184Z,19.1
2018-04-29T11:24:22.204Z,19.2
2018-04-29T11:25:11.908Z,19.1
2018-04-29T11:26:02.868Z,19.2
2018-04-29T11:26:53.749Z,19.2
2018-04-29T11:27:43.338Z,19.2
2018-04-29T11:28:33.096Z,19.2
2018-04-29T11:29:23.433Z,19.2
2018-04-29T11:30:14.040Z,19.1
2018-04-29T11:31:03.628Z,19.1
2018-04-29T11:31:53.603Z,19.2
2018-04-29T11:32:43.600Z,19.2
2018-04-29T11:33:34.271Z,19.1
2018-04-29T11:34:24.351Z,19.2
2018-04-29T11:35:14.426Z,19.1
2018-04-29T11:36:03.625Z,19.2
2018-04-29T11:36:53.987Z,19.2
2018-04-29T11:37:44.585Z,19.2
2018-04-29T11:38:34.375Z,19.3
2018-04-29T11:39:24.481Z,19.3
2018-04-29T11:40:14.932Z,19.3